Time;durP1;ratioP1;P1;durP2;ratioP2;P2;SDS_P1;SDS_P2;PMS_P1;PMS_P2;Temp;Humidity;BMP_temperature;BMP_pressure;BME280_temperature;BME280_humidity;BME280_pressure;Samples;Min_cycle;Max_cycle;Signal;HPM_P1;HPM_P2
2022/02/09 00:01:32;;;;;;;15.82;1.95;;;;;;;8.77;85.04;102515.84;5021059;28;20047;-44
2022/02/09 00:06:41;;;;;;;13.13;1.75;;;;;;;8.77;85.35;102505.97;5016181;28;20042;-44
2022/02/09 00:09:04;;;;;;;12.87;2.13;;;;;;;8.75;85.11;102501.69;5018029;28;20060;-45
2022/02/09 00:11:38;;;;;;;17.15;2.00;;;;;;;8.74;85.09;102505.34;5034479;28;20040;-44
2022/02/09 00:14:14;;;;;;;20.40;2.00;;;;;;;8.75;85.16;102510.59;5027363;28;20040;-43
2022/02/09 00:19:32;;;;;;;16.58;2.33;;;;;;;8.76;85.00;102503.38;5014638;28;20049;-45
2022/02/09 00:24:59;;;;;;;15.30;1.65;;;;;;;8.76;85.09;102501.53;5030234;28;20048;-44
2022/02/09 00:27:52;;;;;;;18.73;2.35;;;;;;;8.77;84.66;102500.59;5019898;28;20041;-44
2022/02/09 00:31:01;;;;;;;14.40;1.98;;;;;;;8.79;85.01;102505.81;5017967;28;20038;-43
2022/02/09 01:56:37;;;;;;;19.88;2.55;;;;;;;8.60;89.80;102471.63;5026878;28;20079;-46
2022/02/09 01:59:03;;;;;;;16.85;2.55;;;;;;;8.58;90.08;102468.19;5031128;28;20409;-45
2022/02/09 02:01:28;;;;;;;17.35;2.13;;;;;;;8.59;90.46;102463.72;5024921;28;20025;-47
2022/02/09 02:03:54;;;;;;;19.67;3.28;;;;;;;8.56;90.50;102460.31;5028170;28;20044;-45
2022/02/09 02:06:20;;;;;;;12.27;2.28;;;;;;;8.59;91.08;102469.06;5031613;28;20028;-44
2022/02/09 02:08:48;;;;;;;9.45;2.50;;;;;;;8.56;91.03;102465.66;5028382;28;20025;-44
2022/02/09 02:14:08;;;;;;;17.73;2.90;;;;;;;8.60;90.74;102465.41;5024902;28;20084;-44
2022/02/09 02:16:44;;;;;;;14.50;3.20;;;;;;;8.61;90.87;102456.34;5025623;28;20199;-45
2022/02/09 02:19:25;;;;;;;14.02;3.00;;;;;;;8.61;90.41;102461.72;5024458;28;20469;-44
2022/02/09 02:29:50;;;;;;;11.45;3.47;;;;;;;8.57;91.47;102451.25;5014854;28;20068;-45
2022/02/09 02:57:02;;;;;;;19.40;4.70;;;;;;;8.37;92.66;102427.88;5020146;28;20488;-45
2022/02/09 03:17:37;;;;;;;8.60;3.08;;;;;;;8.36;93.60;102405.59;5020321;28;19925;-45
2022/02/09 03:20:15;;;;;;;10.88;3.17;;;;;;;8.32;93.48;102414.00;5021945;28;20057;-45
2022/02/09 03:23:15;;;;;;;12.43;3.22;;;;;;;8.32;93.61;102408.66;5017177;28;20037;-43
2022/02/09 03:31:01;;;;;;;16.20;3.83;;;;;;;8.28;93.74;102418.78;5012144;28;20037;-44
2022/02/09 03:57:46;;;;;;;8.00;4.00;;;;;;;8.29;93.75;102395.50;5025325;28;20041;-44
2022/02/09 04:00:17;;;;;;;11.93;4.28;;;;;;;8.28;93.42;102417.94;5032261;28;20083;-42
2022/02/09 04:02:45;;;;;;;11.77;4.05;;;;;;;8.27;93.62;102389.44;5028575;28;20036;-45
2022/02/09 04:05:10;;;;;;;13.57;4.53;;;;;;;8.30;93.56;102392.69;5018304;28;20030;-44
2022/02/09 04:07:36;;;;;;;14.50;4.70;;;;;;;8.31;93.58;102393.53;5027769;28;20025;-44
2022/02/09 04:10:02;;;;;;;10.35;4.65;;;;;;;8.28;93.22;102385.75;5014944;28;20116;-44
2022/02/09 04:12:40;;;;;;;15.55;4.80;;;;;;;8.25;93.51;102396.75;5025524;28;20026;-44
2022/02/09 04:17:47;;;;;;;15.85;5.00;;;;;;;8.27;93.50;102390.28;5024814;28;20132;-44
2022/02/09 04:36:31;;;;;;;15.02;5.82;;;;;;;8.20;93.87;102380.19;5021232;28;20111;-44
2022/02/09 04:39:08;;;;;;;13.98;6.22;;;;;;;8.21;93.69;102380.03;5016464;28;20503;-43
2022/02/09 04:42:05;;;;;;;18.13;5.45;;;;;;;8.20;93.74;102374.81;5033011;28;20377;-45
2022/02/09 04:52:27;;;;;;;16.35;6.65;;;;;;;8.20;94.07;102373.00;5013615;28;20076;-44
2022/02/09 04:55:10;;;;;;;12.43;5.55;;;;;;;8.18;93.75;102371.41;5018329;28;20112;-44
2022/02/09 04:57:47;;;;;;;17.48;5.93;;;;;;;8.14;93.90;102366.31;5017785;28;20029;-44
2022/02/09 05:00:29;;;;;;;12.75;5.85;;;;;;;8.15;93.97;102372.53;5030493;28;20148;-44
2022/02/09 05:29:23;;;;;;;17.13;6.60;;;;;;;8.11;93.47;102369.25;5033033;28;20151;-43
2022/02/09 05:31:50;;;;;;;12.90;5.45;;;;;;;8.09;93.98;102365.84;5030427;28;20057;-44
2022/02/09 05:34:15;;;;;;;18.52;6.38;;;;;;;8.10;93.97;102367.53;5028674;28;20541;-44
2022/02/09 05:36:41;;;;;;;12.35;5.40;;;;;;;8.08;93.64;102364.16;5023982;28;20025;-45
2022/02/09 05:39:06;;;;;;;13.48;5.03;;;;;;;8.10;94.04;102374.72;5028476;28;20041;-44
2022/02/09 05:41:34;;;;;;;15.65;5.00;;;;;;;8.11;93.70;102368.41;5028108;28;20543;-45
2022/02/09 05:43:59;;;;;;;18.25;4.93;;;;;;;8.07;93.11;102375.84;5013293;28;20030;-43
2022/02/09 05:51:35;;;;;;;16.37;5.73;;;;;;;8.04;94.01;102377.94;5021711;28;20056;-43
2022/02/09 05:56:45;;;;;;;19.30;6.45;;;;;;;8.00;94.52;102385.38;5020180;28;20045;-44
2022/02/09 05:59:28;;;;;;;15.68;5.95;;;;;;;7.98;94.76;102368.59;5030602;28;20393;-44
2022/02/09 06:01:53;;;;;;;11.50;4.78;;;;;;;7.97;94.60;102366.84;5014586;28;20042;-44
2022/02/09 06:04:19;;;;;;;15.40;5.57;;;;;;;7.97;95.02;102355.28;5033426;28;20112;-44
2022/02/09 06:06:44;;;;;;;16.13;4.55;;;;;;;7.94;94.89;102372.47;5024946;28;20053;-45
2022/02/09 06:09:10;;;;;;;10.20;4.22;;;;;;;7.91;95.17;102352.13;5031583;28;20121;-44
2022/02/09 06:11:50;;;;;;;17.50;4.38;;;;;;;7.89;95.38;102361.28;5019185;28;20057;-45
2022/02/09 06:19:45;;;;;;;13.98;5.55;;;;;;;7.86;96.25;102373.13;5012617;28;20050;-45
2022/02/09 06:22:11;;;;;;;18.60;5.25;;;;;;;7.81;96.64;102367.28;5014020;28;20043;-44
2022/02/09 06:24:39;;;;;;;39.92;7.45;;;;;;;7.83;96.80;102369.84;5029405;28;20025;-44
2022/02/09 06:27:05;;;;;;;21.20;6.97;;;;;;;7.83;96.49;102354.59;5031059;28;20132;-44
2022/02/09 06:29:31;;;;;;;21.52;6.43;;;;;;;7.84;96.88;102361.66;5030823;28;20116;-45
2022/02/09 06:31:56;;;;;;;22.90;6.13;;;;;;;7.81;96.93;102361.91;5031691;28;20076;-45
2022/02/09 06:34:22;;;;;;;14.77;6.07;;;;;;;7.82;97.00;102354.72;5026691;28;20063;-44
2022/02/09 06:37:00;;;;;;;17.63;5.75;;;;;;;7.78;97.04;102366.69;5017174;28;20113;-45
2022/02/09 06:39:26;;;;;;;;;;;;;;;7.78;96.81;102355.97;5019228;28;20033;-44
2022/02/09 06:41:51;;;;;;;21.02;5.90;;;;;;;7.80;97.03;102375.47;5021306;28;19914;-46
2022/02/09 06:44:19;;;;;;;13.25;5.28;;;;;;;7.79;96.81;102352.31;5026546;28;20075;-43
2022/02/09 06:46:44;;;;;;;20.58;6.38;;;;;;;7.81;96.89;102355.72;5029308;28;20436;-44
2022/02/09 06:49:09;;;;;;;21.15;6.18;;;;;;;7.80;97.19;102354.88;5031213;28;20036;-44
2022/02/09 06:51:37;;;;;;;22.02;6.28;;;;;;;7.81;97.11;102353.03;5031655;28;20087;-44
2022/02/09 06:55:06;;;;;;;22.80;5.93;;;;;;;7.79;96.83;102341.59;5019287;28;20022;-46
2022/02/09 06:59:50;;;;;;;19.88;5.93;;;;;;;7.79;96.45;102358.50;5031779;28;20140;-46
2022/02/09 07:02:08;;;;;;;15.75;5.30;;;;;;;7.76;96.80;102342.69;5018379;28;20041;-44
2022/02/09 07:04:35;;;;;;;15.60;5.40;;;;;;;7.79;96.54;102347.78;5022428;28;20474;-45
2022/02/09 07:07:01;;;;;;;18.50;5.80;;;;;;;7.84;96.70;102350.94;5014402;28;20034;-44
2022/02/09 07:09:29;;;;;;;20.05;5.85;;;;;;;7.83;96.35;102351.09;5026343;28;20088;-45
2022/02/09 07:11:55;;;;;;;22.55;6.47;;;;;;;7.86;96.04;102346.31;5017349;28;20143;-44
2022/02/09 07:14:24;;;;;;;19.40;6.57;;;;;;;7.87;96.43;102344.47;5021795;28;20041;-44
2022/02/09 07:16:51;;;;;;;20.88;7.32;;;;;;;7.87;95.80;102344.47;5027100;28;20042;-48
2022/02/09 07:19:16;;;;;;;15.77;7.05;;;;;;;7.88;96.06;102346.19;5033514;28;20037;-45
2022/02/09 07:21:42;;;;;;;21.58;7.88;;;;;;;7.90;95.88;102346.94;5025274;28;20426;-44
2022/02/09 07:24:12;;;;;;;18.00;7.88;;;;;;;7.91;95.72;102345.94;5033955;28;20029;-46
2022/02/09 07:29:13;;;;;;;20.45;7.85;;;;;;;7.90;95.38;102344.25;5021419;28;20069;-45
2022/02/09 07:31:39;;;;;;;13.97;8.00;;;;;;;7.93;95.23;102349.34;5019871;28;20026;-43
2022/02/09 07:34:06;;;;;;;19.33;8.52;;;;;;;7.91;95.32;102338.72;5030606;28;20048;-46
2022/02/09 07:36:35;;;;;;;15.63;8.43;;;;;;;7.92;94.88;102377.09;5014013;28;20030;-45
2022/02/09 07:39:35;;;;;;;25.48;9.90;;;;;;;7.94;95.22;102345.66;5064965;28;20386;-44
2022/02/09 07:42:08;;;;;;;23.63;7.90;;;;;;;7.95;95.07;102352.72;5064688;28;20040;-44
2022/02/09 07:44:51;;;;;;;17.58;7.85;;;;;;;7.97;94.84;102350.78;5067854;28;20036;-45
2022/02/09 07:50:46;;;;;;;14.68;6.95;;;;;;;8.00;94.75;102358.56;5067176;28;20059;-45
2022/02/09 07:53:01;;;;;;;15.98;6.93;;;;;;;7.98;94.64;102357.84;5067177;28;20397;-45
2022/02/09 07:55:26;;;;;;;17.25;7.13;;;;;;;8.00;94.65;102350.50;5068858;28;20041;-46
2022/02/09 07:57:52;;;;;;;14.23;6.72;;;;;;;8.03;94.35;102344.03;5068348;28;20133;-46
2022/02/09 08:00:17;;;;;;;16.65;7.85;;;;;;;8.05;94.48;102347.44;5068574;28;20032;-45
2022/02/09 08:02:43;;;;;;;15.25;6.13;;;;;;;8.05;93.58;102342.94;5072951;28;20078;-46
2022/02/09 08:05:09;;;;;;;9.90;6.28;;;;;;;8.07;93.45;102340.97;5083230;28;20039;-43
2022/02/09 08:07:34;;;;;;;9.60;5.65;;;;;;;8.09;93.21;102360.47;5080243;28;20025;-48
2022/02/09 08:10:00;;;;;;;16.92;6.15;;;;;;;8.11;92.95;102358.53;5048977;28;20124;-46
2022/02/09 08:12:49;;;;;;;15.13;6.57;;;;;;;8.09;92.97;102341.72;5067634;28;20033;-46
2022/02/09 08:23:33;;;;;;;14.85;5.55;;;;;;;8.19;92.02;102348.97;5046300;28;20103;-45
2022/02/09 08:29:20;;;;;;;14.15;5.90;;;;;;;8.26;91.38;102340.28;5066499;28;20044;-44
2022/02/09 08:34:11;;;;;;;15.40;5.70;;;;;;;8.31;90.98;102356.00;5065197;28;20102;-45
2022/02/09 08:36:37;;;;;;;15.43;6.25;;;;;;;8.31;91.26;102347.94;5065642;28;20099;-44
2022/02/09 08:39:04;;;;;;;14.40;6.25;;;;;;;8.25;91.37;102343.94;5066342;28;20123;-45
2022/02/09 08:41:29;;;;;;;14.52;7.25;;;;;;;8.27;91.49;102347.38;5066264;28;20041;-45
2022/02/09 08:43:55;;;;;;;12.65;6.70;;;;;;;8.27;91.81;102339.31;5065654;28;20389;-45
2022/02/09 08:46:20;;;;;;;17.73;8.27;;;;;;;8.27;91.42;102359.94;5063268;28;20036;-45
2022/02/09 08:48:46;;;;;;;16.70;7.97;;;;;;;8.21;92.06;102352.38;5059552;28;20045;-43
2022/02/09 08:51:12;;;;;;;24.48;8.30;;;;;;;8.19;92.36;102399.94;5034435;28;20030;-45
2022/02/09 08:53:37;;;;;;;22.40;8.80;;;;;;;8.20;92.29;102340.81;5035216;28;20024;-47
2022/02/09 08:56:05;;;;;;;18.02;8.52;;;;;;;8.23;92.03;102345.06;5051367;28;20029;-45
2022/02/09 08:58:30;;;;;;;16.75;8.65;;;;;;;8.24;92.14;102349.44;5034665;28;20525;-46
2022/02/09 09:01:07;;;;;;;19.73;8.45;;;;;;;8.25;91.96;102352.00;5041605;28;20104;-46
2022/02/09 09:03:41;;;;;;;25.10;9.43;;;;;;;8.23;91.94;102334.34;5053926;28;20469;-46
2022/02/09 09:06:08;;;;;;;20.27;8.68;;;;;;;8.22;92.22;102343.38;5052545;28;20045;-46
2022/02/09 09:17:16;;;;;;;21.58;9.20;;;;;;;8.37;91.50;102344.72;5034899;28;20048;-45
2022/02/09 09:57:59;;;;;;;21.75;9.27;;;;;;;8.50;90.00;102353.47;5040172;28;20052;-46
2022/02/09 10:04:03;;;;;;;25.50;9.98;;;;;;;8.71;88.79;102376.75;5033307;28;20063;-45
2022/02/09 10:34:42;;;;;;;18.58;9.15;;;;;;;9.79;83.88;102390.47;5050887;28;20029;-46
2022/02/09 10:37:07;;;;;;;20.17;9.15;;;;;;;9.67;84.39;102376.31;5046667;28;20103;-46
2022/02/09 10:42:23;;;;;;;22.88;9.70;;;;;;;9.55;84.68;102382.78;5047201;28;20051;-48
2022/02/09 10:45:02;;;;;;;26.45;9.82;;;;;;;9.49;85.03;102387.88;5050029;28;20084;-45
2022/02/09 10:47:36;;;;;;;33.30;11.15;;;;;;;9.19;86.10;102389.59;5048551;28;20079;-45
2022/02/09 10:50:17;;;;;;;30.10;11.93;;;;;;;8.99;87.02;102392.19;5034961;28;20462;-46
2022/02/09 10:52:51;;;;;;;21.02;10.90;;;;;;;9.00;87.13;102393.03;5050874;28;20049;-44
2022/02/09 10:55:39;;;;;;;29.55;12.25;;;;;;;9.02;87.29;102386.53;5049192;28;20047;-45
2022/02/09 10:58:08;;;;;;;22.75;11.32;;;;;;;9.13;86.87;102388.28;5051469;28;20018;-46
2022/02/09 11:00:33;;;;;;;23.75;10.55;;;;;;;9.19;86.33;102389.59;5049357;28;20487;-45
2022/02/09 11:02:59;;;;;;;26.70;11.77;;;;;;;9.18;86.14;102391.41;5052178;28;20029;-45
2022/02/09 11:05:25;;;;;;;27.10;10.98;;;;;;;9.10;86.33;102403.84;5052233;28;20033;-45
2022/02/09 11:07:52;;;;;;;21.83;11.07;;;;;;;9.11;86.39;102397.47;5050806;28;20033;-45
2022/02/09 11:10:17;;;;;;;26.15;11.73;;;;;;;9.06;86.22;102408.63;5050532;28;20392;-45
2022/02/09 11:12:43;;;;;;;24.05;10.80;;;;;;;9.00;86.87;102393.91;5050138;28;20103;-46
2022/02/09 11:15:10;;;;;;;25.50;10.82;;;;;;;8.94;87.20;102399.78;5043385;28;20029;-46
2022/02/09 11:17:40;;;;;;;24.08;10.48;;;;;;;9.06;87.25;102395.19;5039483;28;20026;-46
2022/02/09 11:20:09;;;;;;;25.35;11.00;;;;;;;9.15;86.40;102401.59;5051844;28;20029;-46
2022/02/09 11:22:44;;;;;;;32.28;10.30;;;;;;;9.17;86.26;102389.72;5051918;28;20036;-44
2022/02/09 11:25:55;;;;;;;24.48;9.50;;;;;;;9.04;86.46;102396.31;5051885;28;20037;-46
2022/02/09 11:28:34;;;;;;;24.67;10.50;;;;;;;9.07;87.06;102390.69;5052332;28;20123;-48
2022/02/09 11:31:11;;;;;;;24.73;10.63;;;;;;;9.09;86.85;102391.41;5050529;28;20115;-45
2022/02/09 11:33:54;;;;;;;30.10;10.40;;;;;;;9.31;86.32;102401.94;5049142;28;20123;-46
2022/02/09 11:36:45;;;;;;;29.25;9.57;;;;;;;9.45;86.06;102398.03;5042050;28;20358;-46
2022/02/09 11:39:18;;;;;;;24.52;9.70;;;;;;;9.36;86.22;102380.88;5042586;28;20099;-46
2022/02/09 11:41:59;;;;;;;23.98;10.43;;;;;;;9.37;85.61;102385.28;5034019;28;20038;-46
2022/02/09 11:44:47;;;;;;;26.08;9.32;;;;;;;9.36;85.92;102382.72;5043741;28;20064;-47
2022/02/09 11:47:56;;;;;;;21.25;9.27;;;;;;;9.58;85.20;102379.81;5047191;28;20682;-47
2022/02/09 11:54:37;;;;;;;17.88;8.48;;;;;;;9.71;83.77;102382.25;5028120;28;20029;-45
2022/02/09 12:12:09;;;;;;;24.42;8.45;;;;;;;9.48;85.46;102364.66;5048423;28;20056;-47
2022/02/09 12:15:44;;;;;;;25.77;9.18;;;;;;;9.40;85.17;102347.41;5048603;28;20108;-46
2022/02/09 12:20:20;;;;;;;28.38;9.20;;;;;;;9.35;86.07;102352.34;5048613;28;20113;-45
2022/02/09 12:25:37;;;;;;;23.90;9.18;;;;;;;9.48;85.94;102348.53;5050929;28;20130;-46
2022/02/09 12:28:03;;;;;;;22.60;9.43;;;;;;;9.41;85.92;102349.09;5040686;28;20040;-46
2022/02/09 12:30:28;;;;;;;22.52;9.77;;;;;;;9.50;85.44;102352.78;5035622;28;20452;-46
2022/02/09 12:32:53;;;;;;;18.65;8.75;;;;;;;9.42;85.38;102353.47;5035654;28;20400;-45
2022/02/09 12:35:20;;;;;;;22.48;9.15;;;;;;;9.49;85.34;102351.09;5052009;28;20112;-46
2022/02/09 12:37:46;;;;;;;23.98;9.63;;;;;;;9.54;85.04;102353.38;5033918;28;20136;-45
2022/02/09 12:40:13;;;;;;;25.23;9.68;;;;;;;9.57;85.09;102358.47;5032037;28;20560;-45
2022/02/09 12:42:41;;;;;;;22.48;8.80;;;;;;;9.72;84.71;102340.94;5031959;28;20048;-47
2022/02/09 12:45:10;;;;;;;25.92;9.05;;;;;;;9.84;84.30;102342.50;5035749;28;20029;-48
2022/02/09 12:47:39;;;;;;;19.08;8.32;;;;;;;9.83;83.71;102348.88;5051462;28;20046;-45
2022/02/09 12:50:27;;;;;;;26.63;9.05;;;;;;;9.84;83.52;102339.81;5051351;28;20021;-45
2022/02/09 12:52:53;;;;;;;20.20;8.38;;;;;;;9.64;84.02;102338.97;5051338;28;20033;-46
2022/02/09 12:55:24;;;;;;;19.00;7.35;;;;;;;9.63;84.33;102349.84;5051513;28;20029;-47
2022/02/09 12:57:55;;;;;;;21.48;8.55;;;;;;;9.57;84.52;102336.97;5049916;28;20634;-46
2022/02/09 13:00:43;;;;;;;18.10;7.72;;;;;;;9.58;84.31;102339.50;5050153;28;20052;-46
2022/02/09 13:03:12;;;;;;;17.30;6.75;;;;;;;9.73;84.17;102326.50;5054700;28;20120;-46
2022/02/09 13:05:42;;;;;;;16.73;6.38;;;;;;;9.72;83.87;102334.72;5054574;28;20353;-47
2022/02/09 13:08:07;;;;;;;18.05;6.35;;;;;;;9.84;83.61;102333.59;5053919;28;20224;-47
2022/02/09 13:10:39;;;;;;;23.67;6.20;;;;;;;9.78;83.66;102336.84;5054349;28;20104;-45
2022/02/09 13:13:16;;;;;;;21.05;6.03;;;;;;;9.73;84.08;102337.25;5052947;28;20048;-48
2022/02/09 13:16:35;;;;;;;15.93;5.43;;;;;;;9.69;84.33;102333.16;5053820;28;20063;-47
2022/02/09 13:18:54;;;;;;;23.33;6.18;;;;;;;9.72;84.04;102343.63;5056002;28;20033;-46
2022/02/09 14:06:55;;;;;;;;;;;;;;;9.12;87.44;102324.81;5041200;28;20071;-46
2022/02/09 14:34:46;;;;;;;22.85;8.60;;;;;;;8.95;87.38;102322.75;5043192;28;20130;-45
2022/02/09 14:55:07;;;;;;;37.00;9.95;;;;;;;8.91;90.34;102334.78;5029656;28;20050;-45
2022/02/09 14:57:39;;;;;;;30.67;9.60;;;;;;;8.88;90.80;102338.56;5040297;28;20045;-46
2022/02/09 15:00:13;;;;;;;33.67;10.50;;;;;;;8.88;91.13;102335.06;5031547;28;20412;-47
2022/02/09 15:10:32;;;;;;;28.38;9.43;;;;;;;8.64;93.12;102346.09;5036283;28;20528;-45
2022/02/09 15:13:15;;;;;;;35.38;9.77;;;;;;;8.57;93.48;102348.44;5029474;28;20516;-46
2022/02/09 15:23:30;;;;;;;29.15;10.75;;;;;;;8.45;95.58;102336.06;5037608;28;20071;-45
2022/02/09 15:25:59;;;;;;;30.33;11.25;;;;;;;8.38;96.14;102335.72;5038567;28;20116;-45
2022/02/09 15:28:25;;;;;;;37.10;11.45;;;;;;;8.46;96.79;102337.78;5033111;28;20033;-45
2022/02/09 15:31:03;;;;;;;37.17;11.95;;;;;;;8.36;97.06;102337.69;5036116;28;20486;-45
2022/02/09 15:33:36;;;;;;;37.80;11.63;;;;;;;8.37;96.82;102339.38;5032381;28;20136;-46
2022/02/09 15:36:02;;;;;;;34.65;12.10;;;;;;;8.33;96.91;102341.47;5029808;28;20033;-45
2022/02/09 15:38:38;;;;;;;35.50;12.52;;;;;;;8.33;97.27;102346.00;5028324;28;20160;-46
2022/02/09 15:41:19;;;;;;;39.80;12.77;;;;;;;8.24;97.47;102342.25;5034662;28;20029;-46
2022/02/09 16:10:38;;;;;;;46.80;13.52;;;;;;;8.07;98.41;102338.31;5048466;28;20043;-45
2022/02/09 16:23:50;;;;;;;43.85;11.85;;;;;;;8.14;98.26;102326.09;5054422;28;20106;-45
2022/02/09 16:35:28;;;;;;;40.63;12.32;;;;;;;8.18;97.74;102320.47;5051819;28;20375;-44
2022/02/09 16:37:47;;;;;;;37.38;10.63;;;;;;;8.11;97.25;102315.63;5051370;28;20158;-46
2022/02/09 16:46:14;;;;;;;44.50;10.73;;;;;;;8.14;97.14;102315.38;5052767;28;20056;-46
2022/02/09 16:48:45;;;;;;;38.38;11.82;;;;;;;8.19;97.05;102316.78;5019807;28;20116;-46
2022/02/09 16:51:17;;;;;;;28.92;9.60;;;;;;;8.18;97.21;102309.72;5054136;28;20481;-46
2022/02/09 17:20:22;;;;;;;35.60;9.48;;;;;;;8.25;95.41;102313.59;5033442;28;20064;-45
2022/02/09 17:22:47;;;;;;;35.45;9.95;;;;;;;8.27;95.42;102308.97;5034864;28;20369;-44
2022/02/09 17:25:12;;;;;;;36.05;9.63;;;;;;;8.29;95.58;102312.34;5043449;28;20040;-45
2022/02/09 17:27:42;;;;;;;31.98;9.82;;;;;;;8.27;95.21;102312.50;5053382;28;20044;-44
2022/02/09 17:35:36;;;;;;;26.10;8.50;;;;;;;8.30;95.04;102303.34;5074193;28;20116;-45
2022/02/09 17:38:24;;;;;;;34.95;9.48;;;;;;;8.30;94.75;102303.34;5022654;28;20465;-48
2022/02/09 17:57:00;;;;;;;;;;;;;;;8.28;94.69;102300.78;5054709;28;20136;-46
2022/02/09 17:59:25;;;;;;;42.13;13.18;;;;;;;8.29;95.11;102285.53;5050131;28;19916;-46
2022/02/09 18:01:51;;;;;;;35.20;11.52;;;;;;;8.35;94.75;102285.00;5054013;28;20025;-45
2022/02/09 18:04:20;;;;;;;33.42;11.68;;;;;;;8.38;94.74;102281.22;5053525;28;20032;-44
2022/02/09 18:06:56;;;;;;;37.15;13.15;;;;;;;8.34;95.03;102275.25;5033900;28;20029;-45
2022/02/09 18:10:04;;;;;;;52.40;10.90;;;;;;;8.36;94.82;102275.97;5032615;28;20033;-46
2022/02/09 18:31:14;;;;;;;37.75;9.68;;;;;;;8.23;95.09;102259.22;5029442;28;20516;-45
2022/02/09 18:40:29;;;;;;;28.95;8.63;;;;;;;8.12;94.88;102270.88;5050241;28;20052;-47
2022/02/09 18:45:18;;;;;;;37.70;9.85;;;;;;;8.18;95.20;102266.81;5049988;28;20056;-46
2022/02/09 19:01:21;;;;;;;35.10;9.40;;;;;;;8.17;95.14;102243.69;5048069;28;20036;-45
2022/02/09 19:04:31;;;;;;;36.00;10.27;;;;;;;8.17;94.78;102246.38;5049788;28;20044;-45
2022/02/09 19:14:50;;;;;;;26.70;10.30;;;;;;;8.19;95.18;102241.69;5047390;28;20126;-45
2022/02/09 19:17:28;;;;;;;41.40;11.77;;;;;;;8.18;94.99;102240.84;5049040;28;20511;-47
2022/02/09 19:31:05;;;;;;;30.13;9.75;;;;;;;8.12;94.40;102220.78;5035274;28;20099;-46
2022/02/09 19:40:32;;;;;;;33.25;10.27;;;;;;;8.13;95.00;102217.09;5047348;28;20469;-46
2022/02/09 19:52:18;;;;;;;27.25;8.35;;;;;;;8.21;94.58;102218.28;5022049;28;20710;-47
2022/02/09 19:57:15;;;;;;;24.88;8.35;;;;;;;8.22;94.56;102225.38;5045548;28;20080;-46
2022/02/09 19:59:43;;;;;;;24.98;7.93;;;;;;;8.20;94.29;102217.44;5046724;28;20997;-45
2022/02/09 20:02:10;;;;;;;31.25;8.07;;;;;;;8.24;94.56;102218.00;5046588;28;20021;-46
2022/02/09 20:04:36;;;;;;;24.60;7.47;;;;;;;8.23;94.25;102216.31;5029674;28;20033;-46
2022/02/09 20:07:02;;;;;;;29.65;7.90;;;;;;;8.22;94.46;102220.00;5042850;28;20098;-46
2022/02/09 20:09:27;;;;;;;16.58;6.68;;;;;;;8.24;94.42;102207.28;5046126;28;20484;-44
2022/02/09 20:11:53;;;;;;;20.95;7.18;;;;;;;8.27;94.10;102213.25;5048068;28;20414;-46
2022/02/09 20:14:19;;;;;;;24.90;6.78;;;;;;;8.29;94.44;102210.41;5047859;28;20399;-45
2022/02/09 20:16:58;;;;;;;19.33;6.55;;;;;;;8.28;93.67;102206.88;5046619;28;20380;-47
2022/02/09 20:19:24;;;;;;;23.98;8.35;;;;;;;8.30;94.05;102199.56;5047766;28;20069;-46
2022/02/09 20:21:49;;;;;;;22.85;7.88;;;;;;;8.34;93.87;102205.50;5045451;28;20071;-45
2022/02/09 20:24:16;;;;;;;19.98;6.13;;;;;;;8.38;93.80;102198.06;5045782;28;20029;-46
2022/02/09 20:26:43;;;;;;;23.43;7.60;;;;;;;8.41;93.13;102195.97;5039251;28;20056;-44
2022/02/09 20:29:14;;;;;;;24.75;7.95;;;;;;;8.37;92.86;102197.19;5044404;28;20037;-45
2022/02/09 20:31:47;;;;;;;21.50;7.70;;;;;;;8.38;92.92;102190.00;5046079;28;20067;-47
2022/02/09 20:34:22;;;;;;;30.35;8.05;;;;;;;8.40;92.65;102191.59;5047520;28;20033;-46
2022/02/09 20:36:48;;;;;;;23.23;8.38;;;;;;;8.40;92.60;102186.25;5044035;28;20032;-45
2022/02/09 20:39:18;;;;;;;23.73;8.75;;;;;;;8.40;92.80;102180.88;5045261;28;20139;-46
2022/02/09 20:41:45;;;;;;;25.00;8.98;;;;;;;8.41;92.67;102187.94;5045118;28;20473;-45
2022/02/09 20:44:34;;;;;;;26.55;9.73;;;;;;;8.37;92.72;102186.44;5045330;28;20036;-46
2022/02/09 20:46:59;;;;;;;28.77;9.95;;;;;;;8.39;92.72;102184.53;5033249;28;20064;-44
2022/02/09 20:49:25;;;;;;;24.83;9.95;;;;;;;8.38;92.81;102181.97;5046163;28;20033;-47
2022/02/09 20:51:52;;;;;;;27.40;10.85;;;;;;;8.34;92.56;102178.69;5048948;28;20078;-48
2022/02/09 20:54:17;;;;;;;33.40;10.77;;;;;;;8.35;92.92;102186.59;5033680;28;20033;-46
2022/02/09 20:56:43;;;;;;;29.35;10.60;;;;;;;8.35;93.09;102183.91;5050106;28;20039;-46
2022/02/09 20:59:11;;;;;;;24.77;11.07;;;;;;;8.35;93.08;102175.03;5045049;28;20116;-47
2022/02/09 21:01:55;;;;;;;33.65;10.32;;;;;;;8.35;92.73;102172.34;5042904;28;20044;-46
2022/02/09 21:04:24;;;;;;;34.63;11.98;;;;;;;8.33;93.08;102177.00;5049404;28;20032;-45
2022/02/09 21:14:29;;;;;;;31.38;12.18;;;;;;;8.26;93.27;102173.97;5038867;28;20060;-46
2022/02/09 21:17:11;;;;;;;35.70;13.20;;;;;;;8.23;93.70;102168.03;5041429;28;20032;-46
2022/02/09 21:54:41;;;;;;;42.42;14.90;;;;;;;8.11;94.40;102154.72;5048665;28;20500;-46
2022/02/09 21:57:05;;;;;;;36.75;15.38;;;;;;;8.12;94.19;102151.06;5037876;28;20060;-46
2022/02/09 22:29:32;;;;;;;32.78;16.05;;;;;;;8.31;93.58;102122.63;5052922;28;20052;-45
2022/02/09 22:32:18;;;;;;;44.03;18.00;;;;;;;8.29;93.13;102127.25;5049266;28;20049;-46
2022/02/09 22:46:02;;;;;;;40.28;17.73;;;;;;;8.17;92.75;102104.22;5048339;28;20059;-46
2022/02/09 22:48:58;;;;;;;43.83;19.40;;;;;;;8.13;93.06;102099.09;5053036;28;20064;-48
2022/02/09 22:56:33;;;;;;;48.70;19.08;;;;;;;8.16;93.40;102089.09;5033243;28;19999;-46
2022/02/09 22:59:01;;;;;;;38.80;19.10;;;;;;;8.17;93.29;102082.78;5033474;28;20121;-45
2022/02/09 23:01:47;;;;;;;42.47;19.45;;;;;;;8.16;93.11;102081.91;5031928;28;20473;-46
2022/02/09 23:58:17;;;;;;;54.08;22.00;;;;;;;8.09;92.35;102053.97;5032045;28;20492;-47
